createdAt,value
2018-04-11T00:01:25.284Z,14.90
2018-04-11T00:03:54.364Z,15.10
2018-04-11T00:06:23.447Z,14.00
2018-04-11T00:08:53.301Z,14.10
2018-04-11T00:11:22.422Z,15.00
2018-04-11T00:13:51.500Z,14.57
2018-04-11T00:16:21.397Z,13.90
2018-04-11T00:18:50.692Z,13.97
2018-04-11T00:21:19.783Z,13.47
2018-04-11T00:23:48.881Z,12.30
2018-04-11T00:26:18.797Z,13.20
2018-04-11T00:28:48.652Z,12.90
2018-04-11T00:31:17.796Z,12.70
2018-04-11T00:33:46.892Z,12.20
2018-04-11T00:36:16.025Z,11.20
2018-04-11T00:38:45.116Z,12.37
2018-04-11T00:41:14.215Z,12.40
2018-04-11T00:43:43.309Z,11.37
2018-04-11T00:46:12.407Z,11.67
2018-04-11T00:48:42.287Z,11.37
2018-04-11T00:51:11.377Z,11.60
2018-04-11T00:53:40.506Z,13.30
2018-04-11T00:56:09.598Z,13.10
2018-04-11T00:58:38.682Z,12.60
2018-04-11T01:01:08.529Z,13.80
2018-04-11T01:03:37.620Z,14.10
2018-04-11T01:06:06.712Z,13.03
2018-04-11T01:08:36.559Z,13.43
2018-04-11T01:11:05.648Z,14.77
2018-04-11T01:13:35.502Z,14.77
2018-04-11T01:16:04.591Z,15.17
2018-04-11T01:18:33.736Z,14.50
2018-04-11T01:21:02.828Z,15.40
2018-04-11T01:23:31.924Z,13.77
2018-04-11T01:26:01.783Z,15.97
2018-04-11T01:28:30.881Z,16.50
2018-04-11T01:30:59.961Z,16.10
2018-04-11T01:33:29.817Z,17.20
2018-04-11T01:35:58.900Z,17.07
2018-04-11T01:38:28.741Z,17.40
2018-04-11T01:40:58.617Z,18.73
2018-04-11T01:43:27.696Z,18.00
2018-04-11T01:45:56.827Z,17.80
2018-04-11T01:48:25.920Z,17.80
2018-04-11T01:50:55.015Z,18.90
2018-04-11T01:53:24.892Z,19.63
2018-04-11T01:55:53.979Z,20.50
2018-04-11T01:58:23.060Z,19.60
2018-04-11T02:00:52.908Z,20.90
2018-04-11T02:03:22.022Z,21.30
2018-04-11T02:05:51.109Z,20.80
2018-04-11T02:08:21.053Z,23.13
2018-04-11T02:10:50.136Z,23.30
2018-04-11T02:13:20.012Z,23.20
2018-04-11T02:15:49.100Z,23.77
2018-04-11T02:18:18.213Z,24.93
2018-04-11T02:20:47.306Z,24.47
2018-04-11T02:23:17.151Z,25.27
2018-04-11T02:25:46.297Z,25.67
2018-04-11T02:28:15.382Z,24.40
2018-04-11T02:30:44.524Z,26.03
2018-04-11T02:33:13.612Z,26.87
2018-04-11T02:35:42.695Z,25.60
2018-04-11T02:38:11.848Z,24.63
2018-04-11T02:40:40.933Z,24.13
2018-04-11T02:43:10.100Z,26.07
2018-04-11T02:45:39.191Z,25.20
2018-04-11T02:48:08.306Z,26.50
2018-04-11T02:50:37.392Z,26.10
2018-04-11T02:53:07.269Z,25.83
2018-04-11T02:55:37.184Z,25.57
2018-04-11T02:58:07.057Z,25.60
2018-04-11T03:00:36.204Z,27.00
2018-04-11T03:03:05.296Z,27.60
2018-04-11T03:05:34.416Z,28.00
2018-04-11T03:08:03.501Z,26.80
2018-04-11T03:10:32.589Z,27.07
2018-04-11T03:13:02.440Z,28.83
2018-04-11T03:15:31.617Z,28.47
2018-04-11T03:18:01.468Z,29.80
2018-04-11T03:20:30.560Z,26.60
2018-04-11T03:23:00.409Z,27.13
2018-04-11T03:25:29.499Z,25.67
2018-04-11T03:27:59.355Z,27.50
2018-04-11T03:30:28.448Z,27.27
2018-04-11T03:32:57.571Z,27.87
2018-04-11T03:35:26.659Z,29.13
2018-04-11T03:37:56.517Z,29.50
2018-04-11T03:40:25.614Z,28.70
2018-04-11T03:42:54.709Z,29.47
2018-04-11T03:45:24.568Z,29.83
2018-04-11T03:47:53.657Z,27.90
2018-04-11T03:50:22.768Z,28.00
2018-04-11T03:52:51.846Z,28.57
2018-04-11T03:55:21.732Z,28.80
2018-04-11T03:57:50.848Z,28.33
2018-04-11T04:00:19.944Z,29.00
2018-04-11T04:02:49.027Z,28.90
2018-04-11T04:05:18.875Z,28.40
2018-04-11T04:07:47.984Z,28.03
2018-04-11T04:10:17.101Z,28.50
2018-04-11T04:12:46.225Z,28.30
2018-04-11T04:15:33.185Z,29.13
2018-04-11T04:21:13.330Z,29.20
2018-04-11T04:23:42.572Z,28.53
2018-04-11T04:26:12.457Z,28.23
2018-04-11T04:28:41.581Z,28.13
2018-04-11T04:31:10.668Z,28.90
2018-04-11T04:33:40.039Z,28.83
2018-04-11T04:36:09.244Z,27.97
2018-04-11T04:38:38.328Z,28.70
2018-04-11T04:41:08.181Z,27.57
2018-04-11T04:43:37.435Z,28.93
2018-04-11T04:46:06.520Z,29.03
2018-04-11T04:48:35.707Z,28.83
2018-04-11T04:51:04.797Z,26.60
2018-04-11T04:53:33.891Z,29.43
2018-04-11T04:56:02.972Z,29.25
2018-04-11T04:58:32.061Z,28.80
2018-04-11T05:01:01.172Z,30.37
2018-04-11T05:03:30.257Z,31.73
2018-04-11T05:05:59.348Z,28.07
2018-04-11T05:08:29.197Z,31.20
2018-04-11T05:10:58.284Z,29.93
2018-04-11T05:13:28.192Z,30.63
2018-04-11T05:15:58.493Z,31.20
2018-04-11T05:18:27.683Z,29.53
2018-04-11T05:20:56.780Z,30.20
2018-04-11T05:23:26.632Z,31.70
2018-04-11T05:25:55.741Z,30.53
2018-04-11T05:28:24.830Z,31.20
2018-04-11T05:30:54.680Z,30.00
2018-04-11T05:33:23.804Z,32.70
2018-04-11T05:35:52.899Z,32.20
2018-04-11T05:38:21.997Z,33.33
2018-04-11T05:40:51.089Z,32.10
2018-04-11T05:43:20.236Z,32.97
2018-04-11T05:45:49.320Z,32.67
2018-04-11T05:48:19.409Z,31.27
2018-04-11T05:50:48.508Z,31.50
2018-04-11T05:53:17.600Z,31.23
2018-04-11T05:55:46.689Z,32.27
2018-04-11T05:58:16.570Z,31.43
2018-04-11T06:00:45.707Z,30.10
2018-04-11T06:03:14.789Z,30.40
2018-04-11T06:05:43.876Z,28.97
2018-04-11T06:08:12.973Z,28.30
2018-04-11T06:10:42.064Z,29.33
2018-04-11T06:13:11.990Z,29.63
2018-04-11T06:15:41.845Z,30.17
2018-04-11T06:18:10.928Z,30.13
2018-04-11T06:20:40.784Z,29.47
2018-04-11T06:23:09.876Z,27.70
2018-04-11T06:25:39.001Z,30.53
2018-04-11T06:28:08.204Z,27.97
2018-04-11T06:30:37.283Z,28.60
2018-04-11T06:33:06.409Z,28.60
2018-04-11T06:35:36.251Z,29.40
2018-04-11T06:38:05.332Z,28.17
2018-04-11T06:40:34.500Z,29.37
2018-04-11T06:43:03.585Z,29.83
2018-04-11T06:45:32.732Z,29.97
2018-04-11T06:48:01.821Z,29.77
2018-04-11T06:50:30.994Z,29.87
2018-04-11T06:53:00.151Z,28.80
2018-04-11T06:55:29.244Z,29.10
2018-04-11T06:57:58.360Z,28.20
2018-04-11T07:00:27.590Z,29.43
2018-04-11T07:02:56.684Z,27.77
2018-04-11T07:05:25.776Z,28.93
2018-04-11T07:07:55.680Z,26.67
2018-04-11T07:10:24.791Z,27.77
2018-04-11T07:12:53.904Z,27.33
2018-04-11T07:15:22.988Z,25.47
2018-04-11T07:17:52.927Z,26.30
2018-04-11T07:20:22.016Z,28.63
2018-04-11T07:22:51.152Z,26.53
2018-04-11T07:25:20.281Z,26.30
2018-04-11T07:27:50.134Z,26.63
2018-04-11T07:30:19.228Z,27.50
2018-04-11T07:32:49.084Z,26.70
2018-04-11T07:35:18.173Z,27.57
2018-04-11T07:37:47.270Z,27.20
2018-04-11T07:40:17.234Z,26.03
2018-04-11T07:42:46.316Z,26.47
2018-04-11T07:45:16.228Z,27.10
2018-04-11T07:47:45.309Z,27.70
2018-04-11T07:50:14.395Z,26.63
2018-04-11T07:52:43.481Z,26.07
2018-04-11T07:55:12.599Z,26.30
2018-04-11T07:57:41.684Z,25.87
2018-04-11T08:00:11.584Z,26.00
2018-04-11T08:02:40.671Z,27.20
2018-04-11T08:05:09.777Z,27.23
2018-04-11T08:07:38.873Z,23.47
2018-04-11T08:10:07.981Z,26.20
2018-04-11T08:12:37.121Z,24.37
2018-04-11T08:15:06.325Z,24.47
2018-04-11T08:17:35.469Z,24.30
2018-04-11T08:20:04.565Z,23.00
2018-04-11T08:22:33.860Z,22.70
2018-04-11T08:25:02.944Z,23.50
2018-04-11T08:27:32.089Z,22.87
2018-04-11T08:30:01.172Z,22.50
2018-04-11T08:32:30.723Z,22.20
2018-04-11T08:34:59.839Z,23.10
2018-04-11T08:37:28.927Z,22.33
2018-04-11T08:39:58.114Z,22.90
2018-04-11T08:42:27.960Z,22.80
2018-04-11T08:44:57.064Z,20.40
2018-04-11T08:47:26.208Z,20.97
2018-04-11T08:49:55.379Z,22.20
2018-04-11T08:52:24.467Z,22.23
2018-04-11T08:54:53.552Z,21.20
2018-04-11T08:57:22.651Z,21.27
2018-04-11T08:59:51.772Z,21.80
2018-04-11T09:02:20.917Z,23.03
2018-04-11T09:04:50.764Z,20.47
2018-04-11T09:07:19.870Z,22.47
2018-04-11T09:09:48.961Z,20.90
2018-04-11T09:12:18.819Z,22.40
2018-04-11T09:14:47.903Z,21.97
2018-04-11T09:17:17.759Z,20.10
2018-04-11T09:19:46.844Z,22.20
2018-04-11T09:22:16.792Z,20.90
2018-04-11T09:24:45.873Z,21.70
2018-04-11T09:27:15.021Z,21.27
2018-04-11T09:29:44.104Z,21.10
2018-04-11T09:32:13.961Z,21.60
2018-04-11T09:34:43.879Z,21.73
2018-04-11T09:37:13.728Z,21.87
2018-04-11T09:39:42.816Z,21.70
2018-04-11T09:42:11.900Z,23.00
2018-04-11T09:44:40.979Z,22.00
2018-04-11T09:47:10.069Z,23.37
2018-04-11T09:49:39.195Z,22.20
2018-04-11T09:52:08.276Z,22.07
2018-04-11T09:54:37.550Z,20.77
2018-04-11T09:57:06.660Z,22.57
2018-04-11T09:59:35.800Z,22.00
2018-04-11T10:02:06.598Z,22.70
2018-04-11T10:04:35.697Z,21.60
2018-04-11T10:07:04.857Z,22.47
2018-04-11T10:09:34.708Z,23.93
2018-04-11T10:12:03.800Z,23.30
2018-04-11T10:14:33.852Z,23.33
2018-04-11T10:17:02.938Z,21.53
2018-04-11T10:19:32.789Z,22.10
2018-04-11T10:22:01.904Z,22.80
2018-04-11T10:24:30.993Z,24.00
2018-04-11T10:27:00.840Z,22.97
2018-04-11T10:29:29.984Z,23.77
2018-04-11T10:31:59.143Z,26.20
2018-04-11T10:34:29.073Z,24.97
2018-04-11T10:36:58.921Z,25.70
2018-04-11T10:39:28.289Z,25.90
2018-04-11T10:41:58.156Z,23.57
2018-04-11T10:44:27.352Z,25.20
2018-04-11T10:46:57.203Z,23.87
2018-04-11T10:49:26.295Z,23.53
2018-04-11T10:51:56.794Z,23.10
2018-04-11T10:54:25.893Z,24.17
2018-04-11T10:56:54.971Z,25.33
2018-04-11T10:59:24.061Z,25.37
2018-04-11T11:01:53.914Z,24.10
2018-04-11T11:04:23.008Z,25.40
2018-04-11T11:06:52.856Z,25.97
2018-04-11T11:09:21.939Z,25.80
2018-04-11T11:11:51.816Z,25.43
2018-04-11T11:14:20.992Z,24.67
2018-04-11T11:16:51.053Z,25.03
2018-04-11T11:19:20.139Z,26.57
2018-04-11T11:21:49.988Z,25.37
2018-04-11T11:24:19.076Z,28.20
2018-04-11T11:26:48.929Z,27.50
2018-04-11T11:29:18.100Z,26.87
2018-04-11T11:31:47.952Z,25.87
2018-04-11T11:34:17.059Z,27.73
2018-04-11T11:36:46.172Z,29.27
2018-04-11T11:39:15.257Z,29.23
2018-04-11T11:41:45.152Z,27.90
2018-04-11T11:44:14.227Z,28.73
2018-04-11T11:46:43.312Z,29.67
2018-04-11T11:49:13.189Z,27.17
2018-04-11T11:51:42.304Z,27.23
2018-04-11T11:54:11.422Z,28.93
2018-04-11T11:56:40.505Z,30.77
2018-04-11T11:59:09.588Z,31.00
2018-04-11T12:01:39.592Z,31.23
2018-04-11T12:04:10.188Z,30.23
2018-04-11T12:06:39.271Z,29.63
2018-04-11T12:09:09.126Z,30.37
2018-04-11T12:11:38.207Z,32.67
2018-04-11T12:14:08.073Z,28.80
2018-04-11T12:16:37.205Z,30.57
2018-04-11T12:19:06.290Z,32.30
2018-04-11T12:21:35.404Z,32.43
2018-04-11T12:24:04.485Z,33.23
2018-04-11T12:26:34.331Z,32.80
2018-04-11T12:29:03.416Z,32.23
2018-04-11T12:31:33.264Z,31.63
2018-04-11T12:34:02.402Z,31.17
2018-04-11T12:36:31.484Z,31.30
2018-04-11T12:39:00.565Z,31.10
2018-04-11T12:41:29.645Z,33.30
2018-04-11T12:43:58.748Z,29.80
2018-04-11T12:46:27.867Z,31.17
2018-04-11T12:48:57.064Z,33.63
2018-04-11T12:51:26.617Z,34.47
2018-04-11T12:53:55.701Z,32.10
2018-04-11T12:56:24.780Z,32.27
2018-04-11T12:58:53.935Z,31.20
2018-04-11T13:01:23.026Z,32.73
2018-04-11T13:03:52.207Z,33.10
2018-04-11T13:06:21.296Z,33.80
2018-04-11T13:08:50.409Z,32.67
2018-04-11T13:11:20.258Z,32.37
2018-04-11T13:13:49.495Z,32.70
2018-04-11T13:16:18.585Z,29.73
2018-04-11T13:18:47.668Z,30.77
2018-04-11T13:21:16.853Z,32.63
2018-04-11T13:23:45.937Z,33.67
2018-04-11T13:26:15.025Z,32.73
2018-04-11T13:28:44.109Z,34.10
2018-04-11T13:31:13.249Z,31.80
2018-04-11T13:33:42.340Z,33.87
2018-04-11T13:36:12.200Z,33.93
2018-04-11T13:38:41.309Z,35.47
2018-04-11T13:41:10.392Z,33.90
2018-04-11T13:43:40.272Z,32.40
2018-04-11T13:46:09.356Z,34.23
2018-04-11T13:48:38.473Z,33.00
2018-04-11T13:51:07.560Z,31.53
2018-04-11T13:53:36.647Z,31.50
2018-04-11T13:56:05.748Z,31.67
2018-04-11T13:58:34.879Z,32.30
2018-04-11T14:01:04.746Z,30.93
2018-04-11T14:03:33.865Z,31.13
2018-04-11T14:06:03.712Z,33.10
2018-04-11T14:08:32.795Z,31.67
2018-04-11T14:11:01.882Z,30.23
2018-04-11T14:13:30.966Z,32.17
2018-04-11T14:16:00.817Z,33.13
2018-04-11T14:18:29.961Z,31.77
2018-04-11T14:20:59.144Z,31.50
2018-04-11T14:23:28.265Z,29.53
2018-04-11T14:25:57.344Z,32.20
2018-04-11T14:28:27.283Z,30.10
2018-04-11T14:30:57.136Z,29.30
2018-04-11T14:33:26.217Z,30.87
2018-04-11T14:35:56.091Z,31.47
2018-04-11T14:38:25.192Z,30.67
2018-04-11T14:40:54.271Z,32.90
2018-04-11T14:43:23.352Z,34.53
2018-04-11T14:45:52.446Z,33.90
2018-04-11T14:48:21.600Z,36.43
2018-04-11T14:50:51.453Z,34.47
2018-04-11T14:53:20.539Z,34.20
2018-04-11T14:55:50.389Z,35.50
2018-04-11T14:58:19.535Z,36.70
2018-04-11T15:00:48.655Z,32.97
2018-04-11T15:03:17.735Z,34.23
2018-04-11T15:05:46.822Z,34.03
2018-04-11T15:08:15.963Z,34.57
2018-04-11T15:10:45.056Z,35.80
2018-04-11T15:13:14.140Z,34.23
2018-04-11T15:15:43.995Z,35.97
2018-04-11T15:18:13.086Z,33.00
2018-04-11T15:20:42.175Z,35.10
2018-04-11T15:23:12.058Z,33.93
2018-04-11T15:25:41.933Z,33.87
2018-04-11T15:28:11.784Z,34.27
2018-04-11T15:30:40.880Z,35.80
2018-04-11T15:33:10.728Z,35.20
2018-04-11T15:35:39.816Z,34.20
2018-04-11T15:38:09.693Z,33.07
2018-04-11T15:40:38.772Z,34.80
2018-04-11T15:43:07.906Z,34.10
2018-04-11T15:45:36.988Z,33.93
2018-04-11T15:48:06.075Z,33.33
2018-04-11T15:50:35.921Z,36.13
2018-04-11T15:53:05.048Z,36.40
2018-04-11T15:55:34.129Z,36.17
2018-04-11T15:58:04.666Z,37.13
2018-04-11T16:00:34.556Z,34.47
2018-04-11T16:03:03.781Z,35.90
2018-04-11T16:05:33.685Z,35.07
2018-04-11T16:08:02.808Z,34.53
2018-04-11T16:10:31.891Z,34.63
2018-04-11T16:13:01.012Z,33.47
2018-04-11T16:15:30.096Z,32.83
2018-04-11T16:17:59.949Z,31.37
2018-04-11T16:20:29.060Z,31.20
2018-04-11T16:22:58.280Z,33.57
2018-04-11T16:25:27.393Z,32.67
2018-04-11T16:27:56.540Z,29.80
2018-04-11T16:30:25.637Z,31.80
2018-04-11T16:32:54.752Z,28.80
2018-04-11T16:35:23.841Z,30.33
2018-04-11T16:37:53.018Z,28.47
2018-04-11T16:40:22.106Z,29.70
2018-04-11T16:42:51.184Z,26.80
2018-04-11T16:45:20.318Z,28.23
2018-04-11T16:47:49.400Z,27.20
2018-04-11T16:50:18.490Z,27.70
2018-04-11T16:52:47.591Z,29.93
2018-04-11T16:55:16.685Z,28.20
2018-04-11T16:57:46.535Z,28.47
2018-04-11T17:00:15.616Z,27.90
2018-04-11T17:02:45.476Z,29.77
2018-04-11T17:05:14.616Z,30.20
2018-04-11T17:07:43.705Z,30.43
2018-04-11T17:10:12.792Z,29.33
2018-04-11T17:12:41.906Z,31.47
2018-04-11T17:15:11.132Z,31.20
2018-04-11T17:17:40.273Z,32.00
2018-04-11T17:20:09.367Z,31.80
2018-04-11T17:22:56.434Z,32.73
2018-04-11T17:25:43.695Z,43.43
2018-04-11T17:28:30.873Z,33.27
2018-04-11T17:31:20.568Z,33.30
2018-04-11T17:33:49.683Z,31.23
2018-04-11T17:36:18.824Z,31.37
2018-04-11T17:38:47.925Z,30.50
2018-04-11T17:41:17.021Z,32.57
2018-04-11T17:43:46.875Z,32.37
2018-04-11T17:46:16.022Z,41.50
2018-04-11T17:48:45.174Z,36.40
2018-04-11T17:51:14.269Z,35.80
2018-04-11T17:53:43.386Z,35.60
2018-04-11T17:56:12.524Z,39.40
2018-04-11T17:58:41.619Z,36.47
2018-04-11T18:01:10.714Z,36.37
2018-04-11T18:03:39.958Z,37.23
2018-04-11T18:06:09.047Z,35.20
2018-04-11T18:08:38.147Z,33.83
2018-04-11T18:11:07.236Z,33.10
2018-04-11T18:13:36.324Z,36.40
2018-04-11T18:16:06.284Z,35.40
2018-04-11T18:18:35.373Z,35.67
2018-04-11T18:21:04.490Z,33.87
2018-04-11T18:23:33.581Z,34.97
2018-04-11T18:26:03.491Z,34.50
2018-04-11T18:28:32.580Z,36.63
2018-04-11T18:31:01.705Z,34.30
2018-04-11T18:33:30.792Z,34.13
2018-04-11T18:35:59.885Z,36.33
2018-04-11T18:38:28.968Z,35.43
2018-04-11T18:40:58.824Z,36.10
2018-04-11T18:43:27.940Z,35.43
2018-04-11T18:45:57.060Z,36.80
2018-04-11T18:48:26.157Z,37.20
2018-04-11T18:50:55.244Z,37.13
2018-04-11T18:53:24.340Z,36.97
2018-04-11T18:55:54.271Z,38.87
2018-04-11T18:58:24.158Z,38.10
2018-04-11T19:00:53.330Z,37.40
2018-04-11T19:03:22.497Z,39.73
2018-04-11T19:05:51.614Z,37.80
2018-04-11T19:08:20.737Z,38.27
2018-04-11T19:10:50.693Z,37.50
2018-04-11T19:13:19.972Z,38.60
2018-04-11T19:15:49.016Z,43.63
2018-04-11T19:18:18.113Z,42.33
2018-04-11T19:20:47.270Z,40.00
2018-04-11T19:23:16.385Z,43.93
2018-04-11T19:25:45.486Z,41.37
2018-04-11T19:28:14.590Z,39.63
2018-04-11T19:30:43.684Z,41.90
2018-04-11T19:33:12.777Z,39.17
2018-04-11T19:35:42.664Z,42.60
2018-04-11T19:38:11.878Z,42.73
2018-04-11T19:40:40.967Z,45.00
2018-04-11T19:43:10.091Z,42.67
2018-04-11T19:45:39.178Z,44.13
2018-04-11T19:48:08.270Z,43.47
2018-04-11T19:50:37.358Z,42.73
2018-04-11T19:53:07.210Z,43.90
2018-04-11T19:55:36.312Z,41.63
2018-04-11T19:58:06.188Z,40.77
2018-04-11T20:00:35.281Z,43.00
2018-04-11T20:03:04.372Z,43.23
2018-04-11T20:05:33.551Z,44.17
2018-04-11T20:08:03.409Z,46.10
2018-04-11T20:10:32.500Z,45.07
2018-04-11T20:13:02.361Z,43.60
2018-04-11T20:15:31.453Z,44.10
2018-04-11T20:18:00.545Z,44.00
2018-04-11T20:20:30.410Z,43.57
2018-04-11T20:22:59.590Z,45.80
2018-04-11T20:25:29.444Z,43.67
2018-04-11T20:27:58.541Z,42.97
2018-04-11T20:30:27.628Z,42.70
2018-04-11T20:32:56.766Z,45.20
2018-04-11T20:35:25.861Z,43.50
2018-04-11T20:37:55.720Z,41.73
2018-04-11T20:40:24.816Z,42.00
2018-04-11T20:42:53.933Z,42.53
2018-04-11T20:45:23.025Z,42.17
2018-04-11T20:47:52.882Z,41.90
2018-04-11T20:50:22.004Z,41.20
2018-04-11T20:52:51.316Z,42.47
2018-04-11T20:55:20.400Z,42.00
2018-04-11T20:57:49.488Z,42.27
2018-04-11T21:00:18.682Z,40.30
2018-04-11T21:02:47.786Z,44.93
2018-04-11T21:05:16.905Z,40.83
2018-04-11T21:07:46.024Z,42.40
2018-04-11T21:10:15.111Z,44.30
2018-04-11T21:12:44.291Z,41.57
2018-04-11T21:15:13.379Z,41.50
2018-04-11T21:17:42.468Z,41.60
2018-04-11T21:20:11.594Z,42.77
2018-04-11T21:22:41.448Z,41.30
2018-04-11T21:25:10.554Z,42.93
2018-04-11T21:27:39.641Z,42.13
2018-04-11T21:30:09.568Z,41.27
2018-04-11T21:32:39.432Z,41.53
2018-04-11T21:35:08.522Z,39.20
2018-04-11T21:37:37.643Z,41.50
2018-04-11T21:40:06.736Z,42.63
2018-04-11T21:42:36.588Z,39.20
2018-04-11T21:45:05.673Z,39.53
2018-04-11T21:47:35.524Z,38.80
2018-04-11T21:50:04.857Z,39.00
2018-04-11T21:52:33.979Z,38.33
2018-04-11T21:55:03.076Z,38.40
2018-04-11T21:57:32.167Z,36.97
2018-04-11T22:00:01.263Z,35.80
2018-04-11T22:02:31.312Z,34.10
2018-04-11T22:05:00.400Z,34.80
2018-04-11T22:07:30.311Z,35.60
2018-04-11T22:09:59.405Z,36.60
2018-04-11T22:12:28.500Z,35.20
2018-04-11T22:14:57.660Z,36.33
2018-04-11T22:17:27.508Z,35.10
2018-04-11T22:19:56.601Z,34.97
2018-04-11T22:22:26.452Z,33.80
2018-04-11T22:24:55.609Z,33.07
2018-04-11T22:27:24.692Z,33.17
2018-04-11T22:29:53.820Z,33.07
2018-04-11T22:32:22.912Z,33.97
2018-04-11T22:34:52.000Z,32.20
2018-04-11T22:37:21.168Z,33.33
2018-04-11T22:39:50.253Z,32.17
2018-04-11T22:42:19.384Z,30.70
2018-04-11T22:44:48.453Z,32.77
2018-04-11T22:47:17.543Z,33.27
2018-04-11T22:49:46.732Z,32.63
2018-04-11T22:52:15.820Z,32.77
2018-04-11T22:54:44.908Z,31.63
2018-04-11T22:57:13.994Z,30.43
2018-04-11T22:59:43.708Z,32.87
2018-04-11T23:02:12.792Z,30.70
2018-04-11T23:04:41.880Z,31.53
2018-04-11T23:07:10.980Z,33.27
2018-04-11T23:09:40.075Z,30.27
2018-04-11T23:12:09.175Z,30.70
2018-04-11T23:14:38.299Z,31.90
2018-04-11T23:17:07.384Z,31.63
2018-04-11T23:19:36.468Z,30.50
2018-04-11T23:22:06.320Z,30.60
2018-04-11T23:24:35.408Z,31.67
2018-04-11T23:27:05.260Z,30.07
2018-04-11T23:29:34.392Z,31.80
2018-04-11T23:32:03.510Z,28.77
2018-04-11T23:34:32.597Z,31.77
2018-04-11T23:37:01.676Z,30.07
2018-04-11T23:39:31.800Z,30.50
2018-04-11T23:42:00.889Z,31.07
2018-04-11T23:44:30.064Z,32.93
2018-04-11T23:46:59.164Z,30.70
2018-04-11T23:49:28.255Z,31.45
2018-04-11T23:51:58.136Z,33.00
2018-04-11T23:54:27.224Z,32.87
2018-04-11T23:56:56.308Z,32.20
2018-04-11T23:59:26.193Z,32.27
